createdAt,value
2019-04-16T00:01:32.514Z,10.25
2019-04-16T00:04:07.659Z,10.20
2019-04-16T00:06:55.628Z,9.95
2019-04-16T00:09:38.600Z,9.97
2019-04-16T00:12:22.753Z,9.97
2019-04-16T00:17:20.635Z,9.89
2019-04-16T00:19:49.612Z,9.90
2019-04-16T00:22:27.669Z,9.86
2019-04-16T00:24:57.741Z,9.88
2019-04-16T00:27:28.715Z,9.86
2019-04-16T00:29:58.716Z,9.85
2019-04-16T00:32:31.105Z,9.90
2019-04-16T00:35:00.287Z,9.90
2019-04-16T00:37:29.311Z,9.61
2019-04-16T00:39:58.393Z,9.63
2019-04-16T00:42:27.442Z,9.66
2019-04-16T00:44:56.537Z,9.70
2019-04-16T00:47:25.656Z,9.66
2019-04-16T00:49:57.560Z,9.53
2019-04-16T00:52:25.560Z,9.53
2019-04-16T00:54:54.651Z,9.53
2019-04-16T00:57:23.751Z,9.59
2019-04-16T00:59:56.277Z,9.47
2019-04-16T01:02:23.704Z,9.40
2019-04-16T01:04:52.711Z,9.44
2019-04-16T01:07:21.720Z,9.45
2019-04-16T01:09:50.813Z,9.20
2019-04-16T01:12:19.867Z,9.32
2019-04-16T01:14:48.913Z,9.39
2019-04-16T01:17:17.888Z,9.39
2019-04-16T01:19:46.918Z,9.33
2019-04-16T01:22:16.712Z,9.33
2019-04-16T01:24:45.859Z,9.11
2019-04-16T01:27:15.515Z,9.05
2019-04-16T01:32:48.882Z,9.13
2019-04-16T01:35:51.033Z,9.27
2019-04-16T01:38:34.458Z,9.11
2019-04-16T01:41:09.380Z,9.11
2019-04-16T01:43:38.451Z,9.02
2019-04-16T01:46:07.496Z,9.02
2019-04-16T01:48:38.990Z,9.02
2019-04-16T01:51:07.471Z,8.73
2019-04-16T01:53:36.532Z,8.85
2019-04-16T01:56:05.689Z,8.85
2019-04-16T01:58:34.789Z,8.66
2019-04-16T02:01:03.948Z,8.73
2019-04-16T02:03:32.985Z,8.80
2019-04-16T02:06:01.990Z,8.80
2019-04-16T02:08:31.822Z,8.80
2019-04-16T02:11:01.520Z,8.78
2019-04-16T02:13:30.556Z,8.60
2019-04-16T02:15:59.781Z,8.60
2019-04-16T02:18:29.810Z,8.56
2019-04-16T02:20:59.327Z,8.56
2019-04-16T02:23:28.349Z,8.62
2019-04-16T02:25:57.415Z,8.57
2019-04-16T02:28:28.297Z,8.57
2019-04-16T02:31:00.603Z,8.40
2019-04-16T02:33:29.629Z,8.15
2019-04-16T02:35:58.896Z,8.12
2019-04-16T02:38:27.941Z,8.29
2019-04-16T02:40:57.083Z,8.11
2019-04-16T02:43:26.090Z,8.15
2019-04-16T02:45:58.321Z,8.15
2019-04-16T02:48:25.893Z,8.16
2019-04-16T02:51:06.918Z,8.16
2019-04-16T02:53:46.172Z,7.97
2019-04-16T02:56:42.459Z,8.07
2019-04-16T02:59:15.090Z,8.18
2019-04-16T03:02:02.097Z,8.04
2019-04-16T03:04:36.841Z,8.17
2019-04-16T03:07:05.872Z,8.00
2019-04-16T03:09:39.774Z,7.97
2019-04-16T03:12:09.119Z,7.97
2019-04-16T03:14:38.104Z,7.86
2019-04-16T03:17:32.264Z,7.77
2019-04-16T03:20:07.570Z,7.86
2019-04-16T03:22:36.633Z,7.89
2019-04-16T03:25:12.536Z,7.89
2019-04-16T03:27:37.985Z,7.68
2019-04-16T03:30:07.776Z,7.69
2019-04-16T03:32:48.890Z,7.51
2019-04-16T03:35:18.055Z,7.59
2019-04-16T03:37:47.366Z,7.43
2019-04-16T03:40:18.652Z,7.49
2019-04-16T03:42:47.487Z,7.49
2019-04-16T03:45:16.607Z,7.51
2019-04-16T03:47:48.202Z,7.45
2019-04-16T03:50:16.408Z,7.39
2019-04-16T03:52:45.926Z,7.46
2019-04-16T03:55:14.963Z,7.57
2019-04-16T03:57:43.974Z,7.57
2019-04-16T04:00:14.310Z,7.27
2019-04-16T04:02:43.354Z,7.17
2019-04-16T04:05:12.388Z,7.22
2019-04-16T04:07:44.167Z,7.24
2019-04-16T04:10:12.911Z,7.45
2019-04-16T04:12:42.662Z,7.25
2019-04-16T04:15:13.108Z,7.17
2019-04-16T04:17:42.627Z,7.15
2019-04-16T04:20:14.664Z,7.19
2019-04-16T04:22:42.763Z,7.09
2019-04-16T04:25:11.908Z,7.06
2019-04-16T04:27:43.628Z,7.06
2019-04-16T04:30:12.205Z,7.11
2019-04-16T04:32:41.256Z,7.03
2019-04-16T04:35:11.401Z,7.11
2019-04-16T04:37:40.423Z,7.05
2019-04-16T04:40:09.679Z,7.05
2019-04-16T04:42:38.713Z,7.05
2019-04-16T04:45:09.904Z,7.06
2019-04-16T04:47:38.968Z,6.95
2019-04-16T04:50:08.382Z,7.06
2019-04-16T04:52:37.332Z,7.12
2019-04-16T04:55:06.959Z,7.17
2019-04-16T04:57:36.056Z,7.29
2019-04-16T05:00:08.512Z,7.15
2019-04-16T05:02:36.958Z,7.29
2019-04-16T05:05:16.455Z,7.29
2019-04-16T05:07:46.664Z,7.31
2019-04-16T05:10:15.754Z,7.29
2019-04-16T05:12:44.748Z,7.39
2019-04-16T05:15:14.328Z,7.34
2019-04-16T05:17:43.315Z,7.58
2019-04-16T05:20:15.403Z,7.58
2019-04-16T05:22:43.225Z,7.50
2019-04-16T05:25:12.564Z,7.29
2019-04-16T05:27:41.699Z,7.34
2019-04-16T05:30:10.976Z,7.34
2019-04-16T05:32:40.080Z,7.29
2019-04-16T05:35:10.365Z,7.41
2019-04-16T05:37:39.863Z,7.43
2019-04-16T05:40:10.293Z,7.38
2019-04-16T05:42:39.355Z,7.33
2019-04-16T05:45:08.550Z,7.49
2019-04-16T05:47:37.606Z,7.49
2019-04-16T05:50:08.830Z,7.35
2019-04-16T05:52:37.940Z,7.70
2019-04-16T05:55:17.650Z,7.70
2019-04-16T05:57:47.791Z,7.78
2019-04-16T06:03:01.692Z,7.62
2019-04-16T06:05:30.808Z,7.84
2019-04-16T06:08:10.304Z,7.81
2019-04-16T06:10:39.657Z,7.99
2019-04-16T06:13:45.884Z,8.07
2019-04-16T06:16:31.134Z,8.07
2019-04-16T06:22:14.620Z,8.47
2019-04-16T06:25:09.375Z,8.45
2019-04-16T06:27:54.390Z,8.77
2019-04-16T06:30:48.640Z,8.86
2019-04-16T06:33:39.226Z,9.15
2019-04-16T06:36:26.959Z,8.69
2019-04-16T06:39:01.320Z,8.69
2019-04-16T06:41:58.327Z,8.84
2019-04-16T06:44:30.735Z,8.85
2019-04-16T06:47:17.061Z,8.74
2019-04-16T06:50:02.994Z,8.92
2019-04-16T06:53:09.109Z,9.08
2019-04-16T06:55:44.198Z,9.08
2019-04-16T06:58:18.825Z,9.28
2019-04-16T07:01:23.039Z,9.35
2019-04-16T07:04:06.731Z,9.35
2019-04-16T07:06:53.207Z,9.36
2019-04-16T07:09:41.002Z,9.63
2019-04-16T07:12:07.188Z,10.05
2019-04-16T07:14:36.318Z,10.05
2019-04-16T07:17:09.939Z,10.51
2019-04-16T07:19:39.466Z,10.88
2019-04-16T07:22:09.917Z,10.72
2019-04-16T07:24:39.148Z,10.72
2019-04-16T07:27:12.273Z,11.24
2019-04-16T07:29:53.941Z,11.38
2019-04-16T07:32:34.135Z,11.47
2019-04-16T07:35:31.825Z,11.68
2019-04-16T07:38:36.041Z,11.53
2019-04-16T07:41:12.712Z,11.53
2019-04-16T07:44:07.849Z,11.81
2019-04-16T07:46:52.303Z,12.08
2019-04-16T07:49:35.328Z,12.23
2019-04-16T07:52:25.795Z,12.21
2019-04-16T07:55:23.682Z,12.47
2019-04-16T07:57:53.807Z,12.47
2019-04-16T08:00:22.886Z,12.88
2019-04-16T08:02:53.825Z,13.02
2019-04-16T08:05:22.804Z,13.27
2019-04-16T08:07:52.944Z,13.46
2019-04-16T08:10:22.720Z,12.82
2019-04-16T08:13:03.265Z,13.25
2019-04-16T08:15:32.357Z,13.77
2019-04-16T08:18:01.350Z,13.80
2019-04-16T08:20:31.855Z,13.96
2019-04-16T08:23:03.463Z,13.96
2019-04-16T08:25:34.036Z,14.13
2019-04-16T08:28:06.559Z,13.86
2019-04-16T08:30:39.135Z,13.85
2019-04-16T08:33:06.115Z,14.08
2019-04-16T08:35:35.200Z,14.09
2019-04-16T08:38:04.298Z,14.12
2019-04-16T08:40:33.765Z,14.17
2019-04-16T08:43:02.777Z,14.31
2019-04-16T08:45:31.833Z,13.81
2019-04-16T08:48:00.811Z,14.09
2019-04-16T08:50:29.821Z,14.48
2019-04-16T08:53:00.572Z,14.48
2019-04-16T08:55:29.589Z,14.35
2019-04-16T08:57:58.586Z,14.68
2019-04-16T09:00:27.757Z,14.52
2019-04-16T09:02:59.206Z,14.45
2019-04-16T09:05:28.524Z,14.53
2019-04-16T09:08:12.660Z,14.73
2019-04-16T09:10:33.995Z,14.73
2019-04-16T09:13:05.564Z,14.65
2019-04-16T09:15:35.815Z,14.81
2019-04-16T09:18:16.224Z,14.92
2019-04-16T09:20:45.398Z,14.74
2019-04-16T09:23:14.401Z,14.74
2019-04-16T09:26:13.038Z,15.19
2019-04-16T09:28:53.662Z,15.42
2019-04-16T09:31:37.909Z,16.07
2019-04-16T09:34:28.680Z,16.07
2019-04-16T09:37:16.703Z,16.43
2019-04-16T09:40:18.540Z,17.13
2019-04-16T09:42:47.943Z,16.65
2019-04-16T09:45:18.683Z,16.65
2019-04-16T09:47:47.674Z,17.08
2019-04-16T09:50:16.939Z,17.09
2019-04-16T09:52:46.012Z,17.49
2019-04-16T09:55:19.159Z,17.29
2019-04-16T09:57:46.461Z,17.29
2019-04-16T10:00:20.471Z,17.95
2019-04-16T10:02:49.970Z,17.95
2019-04-16T10:05:19.124Z,18.04
2019-04-16T10:07:48.155Z,18.07
2019-04-16T10:10:17.268Z,17.96
2019-04-16T10:12:46.359Z,18.09
2019-04-16T10:15:17.537Z,18.96
2019-04-16T10:17:46.780Z,18.96
2019-04-16T10:20:15.959Z,19.14
2019-04-16T10:22:44.956Z,19.25
2019-04-16T10:25:15.325Z,19.64
2019-04-16T10:27:47.105Z,19.54
2019-04-16T10:30:32.716Z,19.21
2019-04-16T10:33:01.709Z,19.17
2019-04-16T10:35:30.810Z,20.19
2019-04-16T10:38:04.941Z,20.19
2019-04-16T10:40:45.990Z,19.41
2019-04-16T10:43:44.445Z,19.41
2019-04-16T10:46:14.283Z,19.56
2019-04-16T10:48:58.592Z,20.18
2019-04-16T10:51:32.042Z,20.65
2019-04-16T10:54:12.848Z,20.54
2019-04-16T10:56:59.847Z,21.00
2019-04-16T10:59:46.706Z,21.82
2019-04-16T11:02:33.416Z,20.85
2019-04-16T11:05:09.473Z,20.68
2019-04-16T11:07:38.986Z,20.62
2019-04-16T11:10:11.676Z,21.55
2019-04-16T11:12:39.481Z,21.75
2019-04-16T11:15:08.957Z,21.39
2019-04-16T11:17:38.064Z,21.39
2019-04-16T11:20:07.258Z,21.27
2019-04-16T11:22:36.251Z,20.83
2019-04-16T11:25:05.804Z,20.83
2019-04-16T11:27:34.891Z,20.99
2019-04-16T11:30:05.087Z,21.06
2019-04-16T11:32:39.216Z,21.06
2019-04-16T11:35:05.114Z,21.51
2019-04-16T11:37:36.241Z,20.86
2019-04-16T11:40:05.534Z,21.66
2019-04-16T11:42:34.608Z,21.32
2019-04-16T11:45:03.883Z,22.23
2019-04-16T11:47:34.129Z,21.30
2019-04-16T11:50:03.971Z,22.20
2019-04-16T11:52:34.702Z,21.52
2019-04-16T11:55:04.012Z,21.94
2019-04-16T11:57:33.987Z,22.33
2019-04-16T12:02:42.809Z,22.44
2019-04-16T12:05:26.416Z,22.44
2019-04-16T12:08:18.242Z,22.97
2019-04-16T12:11:12.303Z,22.35
2019-04-16T12:14:04.140Z,21.12
2019-04-16T12:16:50.304Z,22.21
2019-04-16T12:19:37.177Z,22.82
2019-04-16T12:22:25.222Z,22.68
2019-04-16T12:25:12.146Z,23.50
2019-04-16T12:27:54.161Z,23.13
2019-04-16T12:30:32.262Z,23.18
2019-04-16T12:33:20.385Z,23.01
2019-04-16T12:36:14.748Z,23.62
2019-04-16T12:38:58.451Z,22.93
2019-04-16T12:41:47.897Z,23.26
2019-04-16T12:44:45.552Z,23.47
2019-04-16T12:47:37.918Z,23.47
2019-04-16T12:50:16.968Z,22.92
2019-04-16T12:53:02.319Z,22.92
2019-04-16T12:55:38.319Z,22.61
2019-04-16T12:58:11.778Z,23.48
2019-04-16T13:00:54.255Z,22.67
2019-04-16T13:03:46.433Z,23.58
2019-04-16T13:06:26.171Z,22.46
2019-04-16T13:09:29.645Z,24.33
2019-04-16T13:12:12.764Z,22.20
2019-04-16T13:15:01.551Z,23.23
2019-04-16T13:17:50.808Z,23.21
2019-04-16T13:23:33.150Z,23.06
2019-04-16T13:26:11.839Z,22.49
2019-04-16T13:28:39.295Z,23.43
2019-04-16T13:31:08.353Z,22.47
2019-04-16T13:33:37.471Z,21.60
2019-04-16T13:36:06.618Z,23.40
2019-04-16T13:38:40.394Z,22.11
2019-04-16T13:41:08.645Z,22.11
2019-04-16T13:43:42.134Z,22.31
2019-04-16T13:46:11.122Z,22.93
2019-04-16T13:49:01.857Z,21.92
2019-04-16T13:51:31.496Z,22.71
2019-04-16T13:54:09.060Z,21.25
2019-04-16T13:56:43.395Z,22.51
2019-04-16T13:59:34.388Z,22.25
2019-04-16T14:02:17.914Z,22.31
2019-04-16T14:07:13.669Z,22.03
2019-04-16T14:09:44.343Z,22.79
2019-04-16T14:12:13.691Z,22.79
2019-04-16T14:14:42.724Z,21.37
2019-04-16T14:17:17.719Z,21.37
2019-04-16T14:19:44.209Z,21.63
2019-04-16T14:22:13.290Z,21.63
2019-04-16T14:24:42.380Z,22.17
2019-04-16T14:27:13.965Z,21.75
2019-04-16T14:29:42.220Z,21.32
2019-04-16T14:32:11.324Z,21.32
2019-04-16T14:34:49.375Z,21.35
2019-04-16T14:39:52.226Z,21.22
2019-04-16T14:42:22.245Z,21.47
2019-04-16T14:44:56.064Z,21.67
2019-04-16T14:47:25.144Z,21.67
2019-04-16T14:49:54.181Z,21.23
2019-04-16T14:52:23.246Z,21.26
2019-04-16T14:55:01.165Z,21.31
2019-04-16T14:57:30.246Z,21.12
2019-04-16T15:00:09.718Z,21.12
2019-04-16T15:02:52.561Z,21.49
2019-04-16T15:05:50.124Z,21.18
2019-04-16T15:08:38.076Z,20.96
2019-04-16T15:11:38.649Z,21.29
2019-04-16T15:14:14.699Z,21.29
2019-04-16T15:16:50.933Z,21.43
2019-04-16T15:19:43.109Z,21.36
2019-04-16T15:22:34.237Z,21.36
2019-04-16T15:25:13.135Z,21.64
2019-04-16T15:27:55.971Z,20.91
2019-04-16T15:30:37.346Z,21.33
2019-04-16T15:33:24.178Z,21.33
2019-04-16T15:35:56.678Z,21.78
2019-04-16T15:38:50.910Z,22.55
2019-04-16T15:41:29.653Z,21.85
2019-04-16T15:44:07.874Z,21.85
2019-04-16T15:46:54.833Z,21.48
2019-04-16T15:49:42.848Z,21.16
2019-04-16T15:52:27.601Z,20.77
2019-04-16T15:55:33.992Z,20.71
2019-04-16T15:58:24.972Z,20.60
2019-04-16T16:01:03.425Z,20.73
2019-04-16T16:03:50.044Z,20.58
2019-04-16T16:06:22.834Z,20.17
2019-04-16T16:09:10.002Z,20.61
2019-04-16T16:11:48.074Z,20.61
2019-04-16T16:14:16.529Z,20.53
2019-04-16T16:16:47.800Z,20.28
2019-04-16T16:19:16.231Z,19.82
2019-04-16T16:21:45.262Z,20.14
2019-04-16T16:24:14.264Z,20.27
2019-04-16T16:26:43.319Z,20.31
2019-04-16T16:29:12.691Z,20.15
2019-04-16T16:31:41.740Z,20.15
2019-04-16T16:34:10.871Z,20.23
2019-04-16T16:36:43.830Z,20.19
2019-04-16T16:39:12.919Z,20.10
2019-04-16T16:41:41.956Z,19.87
2019-04-16T16:44:11.734Z,20.17
2019-04-16T16:46:57.240Z,20.00
2019-04-16T16:49:22.752Z,20.00
2019-04-16T16:52:09.482Z,19.76
2019-04-16T16:54:39.021Z,19.76
2019-04-16T16:57:13.901Z,20.02
2019-04-16T16:59:50.415Z,19.73
2019-04-16T17:04:58.035Z,19.46
2019-04-16T17:07:27.055Z,19.43
2019-04-16T17:09:57.620Z,19.65
2019-04-16T17:12:26.787Z,19.52
2019-04-16T17:14:55.903Z,19.54
2019-04-16T17:17:24.902Z,19.68
2019-04-16T17:19:53.984Z,19.39
2019-04-16T17:22:23.021Z,19.29
2019-04-16T17:24:52.015Z,19.29
2019-04-16T17:27:21.011Z,19.06
2019-04-16T17:29:50.899Z,18.88
2019-04-16T17:32:20.202Z,19.10
2019-04-16T17:34:49.193Z,19.00
2019-04-16T17:37:21.360Z,18.86
2019-04-16T17:39:52.473Z,18.60
2019-04-16T17:42:26.420Z,18.73
2019-04-16T17:45:31.356Z,18.99
2019-04-16T17:48:12.516Z,18.87
2019-04-16T17:50:52.887Z,18.65
2019-04-16T17:53:50.243Z,18.48
2019-04-16T17:56:38.289Z,18.59
2019-04-16T18:05:23.388Z,18.41
2019-04-16T18:08:25.446Z,18.27
2019-04-16T18:11:15.068Z,18.53
2019-04-16T18:13:57.375Z,18.59
2019-04-16T18:16:50.085Z,18.40
2019-04-16T18:19:47.271Z,18.31
2019-04-16T18:22:25.250Z,18.21
2019-04-16T18:25:13.191Z,18.04
2019-04-16T18:27:50.102Z,18.08
2019-04-16T18:30:38.131Z,17.89
2019-04-16T18:33:29.902Z,17.70
2019-04-16T18:36:21.395Z,18.07
2019-04-16T18:39:09.367Z,17.91
2019-04-16T18:41:57.502Z,17.84
2019-04-16T18:44:44.339Z,17.88
2019-04-16T18:47:44.697Z,17.91
2019-04-16T18:50:22.205Z,17.27
2019-04-16T18:52:48.430Z,17.21
2019-04-16T18:55:17.466Z,17.21
2019-04-16T18:57:46.452Z,17.43
2019-04-16T19:00:35.402Z,17.11
2019-04-16T19:05:42.663Z,17.13
2019-04-16T19:08:11.991Z,17.13
2019-04-16T19:10:41.120Z,16.93
2019-04-16T19:13:11.757Z,16.92
2019-04-16T19:15:40.783Z,16.92
2019-04-16T19:18:18.906Z,17.07
2019-04-16T19:20:40.712Z,17.08
2019-04-16T19:23:11.144Z,17.33
2019-04-16T19:28:15.056Z,16.52
2019-04-16T19:30:44.156Z,16.35
2019-04-16T19:33:13.159Z,16.63
2019-04-16T19:35:42.134Z,16.92
2019-04-16T19:38:11.151Z,16.65
2019-04-16T19:40:40.205Z,16.38
2019-04-16T19:43:10.223Z,16.38
2019-04-16T19:45:40.605Z,16.33
2019-04-16T19:48:10.126Z,16.40
2019-04-16T19:50:39.143Z,16.45
2019-04-16T19:53:13.784Z,16.11
2019-04-16T19:55:38.997Z,16.52
2019-04-16T19:58:08.146Z,16.86
2019-04-16T20:00:37.368Z,16.71
2019-04-16T20:03:08.424Z,16.75
2019-04-16T20:05:37.392Z,16.93
2019-04-16T20:08:06.843Z,16.62
2019-04-16T20:10:35.960Z,16.94
2019-04-16T20:13:05.205Z,16.87
2019-04-16T20:15:34.389Z,16.73
2019-04-16T20:18:06.577Z,16.62
2019-04-16T20:20:34.198Z,16.26
2019-04-16T20:23:03.201Z,16.48
2019-04-16T20:25:32.197Z,16.42
2019-04-16T20:28:01.450Z,16.28
2019-04-16T20:30:30.523Z,16.50
2019-04-16T20:32:59.559Z,16.33
2019-04-16T20:35:31.318Z,16.43
2019-04-16T20:38:00.408Z,16.52
2019-04-16T20:40:29.407Z,16.34
2019-04-16T20:42:59.591Z,16.20
2019-04-16T20:45:28.574Z,16.13
2019-04-16T20:47:57.628Z,15.92
2019-04-16T20:50:26.726Z,16.08
2019-04-16T20:52:55.783Z,16.09
2019-04-16T20:55:24.879Z,15.95
2019-04-16T20:57:55.387Z,16.07
2019-04-16T21:00:28.683Z,16.02
2019-04-16T21:03:02.247Z,16.02
2019-04-16T21:05:35.514Z,16.03
2019-04-16T21:08:00.572Z,15.88
2019-04-16T21:10:29.642Z,16.13
2019-04-16T21:12:58.614Z,15.90
2019-04-16T21:15:28.362Z,16.03
2019-04-16T21:17:57.408Z,15.79
2019-04-16T21:20:26.457Z,15.79
2019-04-16T21:22:57.409Z,15.69
2019-04-16T21:25:26.146Z,15.43
2019-04-16T21:28:02.056Z,15.67
2019-04-16T21:30:31.068Z,15.34
2019-04-16T21:35:51.457Z,15.45
2019-04-16T21:38:35.600Z,15.37
2019-04-16T21:41:04.739Z,15.63
2019-04-16T21:43:35.774Z,15.42
2019-04-16T21:46:04.441Z,15.23
2019-04-16T21:48:34.735Z,14.99
2019-04-16T21:51:03.730Z,14.76
2019-04-16T21:53:32.823Z,14.81
2019-04-16T21:56:06.351Z,14.87
2019-04-16T21:58:32.631Z,14.83
2019-04-16T22:01:17.993Z,14.61
2019-04-16T22:03:50.967Z,14.68
2019-04-16T22:06:20.987Z,14.48
2019-04-16T22:08:50.100Z,14.49
2019-04-16T22:11:19.096Z,14.49
2019-04-16T22:13:50.684Z,14.21
2019-04-16T22:16:18.824Z,14.23
2019-04-16T22:18:47.935Z,14.23
2019-04-16T22:21:16.980Z,14.08
2019-04-16T22:23:50.143Z,13.81
2019-04-16T22:26:16.720Z,13.73
2019-04-16T22:28:45.757Z,13.63
2019-04-16T22:31:14.738Z,13.81
2019-04-16T22:33:43.736Z,13.81
2019-04-16T22:36:12.848Z,13.66
2019-04-16T22:38:44.236Z,13.91
2019-04-16T22:44:14.518Z,13.89
2019-04-16T22:46:52.915Z,13.68
2019-04-16T22:49:22.479Z,13.41
2019-04-16T22:51:52.321Z,13.34
2019-04-16T22:54:21.650Z,13.35
2019-04-16T22:57:01.427Z,13.34
2019-04-16T22:59:31.187Z,13.25
2019-04-16T23:02:00.464Z,12.88
2019-04-16T23:04:29.722Z,12.83
2019-04-16T23:06:58.774Z,12.83
2019-04-16T23:09:29.661Z,12.75
2019-04-16T23:11:58.658Z,12.75
2019-04-16T23:14:27.695Z,12.79
2019-04-16T23:16:57.018Z,12.66
2019-04-16T23:19:26.031Z,12.56
2019-04-16T23:21:55.029Z,12.98
2019-04-16T23:24:24.237Z,12.74
2019-04-16T23:26:53.290Z,12.63
2019-04-16T23:29:22.348Z,12.62
2019-04-16T23:31:55.052Z,12.64
2019-04-16T23:34:22.078Z,12.61
2019-04-16T23:36:51.058Z,12.38
2019-04-16T23:39:20.090Z,12.31
2019-04-16T23:41:49.145Z,12.34
2019-04-16T23:44:34.974Z,12.27
2019-04-16T23:47:19.306Z,12.27
2019-04-16T23:49:54.399Z,12.24
2019-04-16T23:52:28.048Z,12.06
2019-04-16T23:55:02.768Z,12.11
2019-04-16T23:57:40.530Z,11.93
